createdAt,value
2023-03-06T00:01:29.270Z,507.00
2023-03-06T00:05:29.213Z,505.00
2023-03-06T00:09:29.194Z,507.00
2023-03-06T00:13:29.171Z,505.00
2023-03-06T00:17:29.146Z,508.00
2023-03-06T00:21:29.088Z,509.00
2023-03-06T00:25:29.066Z,511.00
2023-03-06T00:29:28.998Z,509.00
2023-03-06T00:33:29.050Z,508.00
2023-03-06T00:37:29.190Z,507.00
2023-03-06T00:41:29.291Z,509.00
2023-03-06T00:45:29.590Z,510.00
2023-03-06T00:49:29.673Z,508.00
2023-03-06T00:53:29.803Z,510.00
2023-03-06T00:57:29.940Z,505.00
2023-03-06T01:01:30.098Z,509.00
2023-03-06T01:05:30.206Z,506.00
2023-03-06T01:09:30.294Z,511.00
2023-03-06T01:13:30.530Z,509.00
2023-03-06T01:17:30.537Z,508.00
2023-03-06T01:21:30.682Z,506.00
2023-03-06T01:25:30.715Z,509.00
2023-03-06T01:29:30.793Z,506.00
2023-03-06T01:33:30.882Z,508.00
2023-03-06T01:37:30.895Z,510.00
2023-03-06T01:41:30.980Z,508.00
2023-03-06T01:45:30.989Z,509.00
2023-03-06T01:49:30.957Z,505.00
2023-03-06T01:53:30.965Z,507.00
2023-03-06T01:57:30.999Z,512.00
2023-03-06T02:01:30.986Z,508.00
2023-03-06T02:05:30.947Z,512.00
2023-03-06T02:09:30.967Z,510.00
2023-03-06T02:13:30.967Z,508.00
2023-03-06T02:17:31.067Z,509.00
2023-03-06T02:21:31.046Z,508.00
2023-03-06T02:25:31.021Z,508.00
2023-03-06T02:29:31.032Z,507.00
2023-03-06T02:33:31.013Z,508.00
2023-03-06T02:37:31.014Z,502.00
2023-03-06T02:41:31.035Z,507.00
2023-03-06T02:45:31.035Z,507.00
2023-03-06T02:49:31.004Z,508.00
2023-03-06T02:53:30.989Z,508.00
2023-03-06T02:57:31.018Z,508.00
2023-03-06T03:01:31.044Z,508.00
2023-03-06T03:05:31.022Z,506.00
2023-03-06T03:09:31.010Z,505.00
2023-03-06T03:13:31.033Z,508.00
2023-03-06T03:17:31.044Z,506.00
2023-03-06T03:21:31.103Z,504.00
2023-03-06T03:25:31.105Z,504.00
2023-03-06T03:29:31.098Z,509.00
2023-03-06T03:33:31.201Z,505.00
2023-03-06T03:37:31.206Z,504.00
2023-03-06T03:41:31.623Z,507.00
2023-03-06T03:45:31.199Z,506.00
2023-03-06T03:49:31.284Z,505.00
2023-03-06T03:53:31.280Z,501.00
2023-03-06T03:57:31.331Z,505.00
2023-03-06T04:01:31.563Z,506.00
2023-03-06T04:05:31.415Z,507.00
2023-03-06T04:09:31.450Z,505.00
2023-03-06T04:13:31.496Z,502.00
2023-03-06T04:17:31.546Z,508.00
2023-03-06T04:21:31.632Z,508.00
2023-03-06T04:25:31.675Z,505.00
2023-03-06T04:29:31.684Z,504.00
2023-03-06T04:33:31.701Z,506.00
2023-03-06T04:37:31.721Z,506.00
2023-03-06T04:41:31.747Z,507.00
2023-03-06T04:45:31.798Z,509.00
2023-03-06T04:49:31.825Z,515.00
2023-03-06T04:53:31.822Z,513.00
2023-03-06T04:57:31.909Z,513.00
2023-03-06T05:01:31.978Z,509.00
2023-03-06T05:05:32.142Z,511.00
2023-03-06T05:09:32.186Z,514.00
2023-03-06T05:13:32.266Z,518.00
2023-03-06T05:17:32.312Z,511.00
2023-03-06T05:21:32.366Z,515.00
2023-03-06T05:25:32.345Z,514.00
2023-03-06T05:29:32.425Z,516.00
2023-03-06T05:33:32.445Z,517.00
2023-03-06T05:37:32.495Z,513.00
2023-03-06T05:41:32.523Z,517.00
2023-03-06T05:45:32.568Z,516.00
2023-03-06T05:49:32.565Z,514.00
2023-03-06T05:53:32.641Z,504.00
2023-03-06T05:57:32.652Z,508.00
2023-03-06T06:01:32.661Z,504.00
2023-03-06T06:05:32.694Z,506.00
2023-03-06T06:09:32.747Z,514.00
2023-03-06T06:13:32.715Z,504.00
2023-03-06T06:17:32.753Z,513.00
2023-03-06T06:21:32.756Z,513.00
2023-03-06T06:25:32.762Z,531.00
2023-03-06T06:29:32.797Z,529.00
2023-03-06T06:33:32.768Z,532.00
2023-03-06T06:37:32.803Z,588.00
2023-03-06T06:41:51.090Z,648.00
2023-03-06T06:45:33.788Z,627.00
2023-03-06T06:49:33.197Z,615.00
2023-03-06T06:53:32.681Z,646.00
2023-03-06T06:57:32.687Z,601.00
2023-03-06T07:01:32.818Z,666.00
2023-03-06T07:05:32.810Z,688.00
2023-03-06T07:09:33.205Z,764.00
2023-03-06T07:13:33.191Z,746.00
2023-03-06T07:17:32.725Z,836.00
2023-03-06T07:21:32.711Z,868.00
2023-03-06T07:25:32.690Z,894.00
2023-03-06T07:29:32.717Z,951.00
2023-03-06T07:33:32.595Z,989.00
2023-03-06T07:37:32.731Z,1031.00
2023-03-06T07:41:32.528Z,1053.00
2023-03-06T07:45:32.717Z,1039.00
2023-03-06T07:49:32.478Z,1079.00
2023-03-06T07:53:32.704Z,1139.00
2023-03-06T07:57:32.704Z,1148.00
2023-03-06T08:01:32.374Z,1167.00
2023-03-06T08:05:32.397Z,1216.00
2023-03-06T08:09:32.384Z,1210.00
2023-03-06T08:13:32.725Z,1229.00
2023-03-06T08:17:32.359Z,1277.00
2023-03-06T08:21:32.255Z,1274.00
2023-03-06T08:25:32.224Z,1266.00
2023-03-06T08:29:32.438Z,1258.00
2023-03-06T08:33:32.141Z,1265.00
2023-03-06T08:37:32.146Z,1277.00
2023-03-06T08:41:32.243Z,1315.00
2023-03-06T08:45:32.396Z,1233.00
2023-03-06T08:49:32.255Z,1134.00
2023-03-06T08:53:42.534Z,801.00
2023-03-06T08:57:32.939Z,766.00
2023-03-06T09:01:32.249Z,812.00
2023-03-06T09:05:31.861Z,817.00
2023-03-06T09:09:31.844Z,804.00
2023-03-06T09:13:31.908Z,817.00
2023-03-06T09:17:31.918Z,835.00
2023-03-06T09:21:31.857Z,826.00
2023-03-06T09:25:31.815Z,818.00
2023-03-06T09:29:31.813Z,827.00
2023-03-06T09:33:31.735Z,822.00
2023-03-06T09:37:31.762Z,814.00
2023-03-06T09:41:31.746Z,896.00
2023-03-06T09:45:31.642Z,1006.00
2023-03-06T09:49:31.613Z,1174.00
2023-03-06T09:53:31.756Z,1217.00
2023-03-06T09:57:31.763Z,1268.00
2023-03-06T10:01:31.514Z,1300.00
2023-03-06T10:05:31.475Z,1198.00
2023-03-06T10:09:31.456Z,1198.00
2023-03-06T10:13:31.419Z,1232.00
2023-03-06T10:17:31.777Z,1223.00
2023-03-06T10:21:31.515Z,1256.00
2023-03-06T10:25:32.267Z,1303.00
2023-03-06T10:29:31.533Z,1289.00
2023-03-06T10:33:31.761Z,1276.00
2023-03-06T10:37:32.654Z,1306.00
2023-03-06T10:41:32.295Z,1329.00
2023-03-06T10:45:47.292Z,1344.00
2023-03-06T10:49:33.307Z,1325.00
2023-03-06T10:53:32.185Z,1307.00
2023-03-06T10:57:32.134Z,1314.00
2023-03-06T11:01:32.343Z,1330.00
2023-03-06T11:05:32.056Z,1322.00
2023-03-06T11:09:32.059Z,1306.00
2023-03-06T11:13:31.986Z,1315.00
2023-03-06T11:17:32.003Z,1320.00
2023-03-06T11:21:32.287Z,1328.00
2023-03-06T11:25:31.894Z,1327.00
2023-03-06T11:29:34.298Z,1360.00
2023-03-06T11:33:31.796Z,1338.00
2023-03-06T11:37:31.804Z,1347.00
2023-03-06T11:41:31.738Z,1307.00
2023-03-06T11:45:31.789Z,1237.00
2023-03-06T11:49:31.681Z,1160.00
2023-03-06T11:53:31.611Z,1010.00
2023-03-06T11:57:31.575Z,890.00
2023-03-06T12:01:31.538Z,787.00
2023-03-06T12:05:31.561Z,762.00
2023-03-06T12:09:31.487Z,665.00
2023-03-06T12:13:31.477Z,634.00
2023-03-06T12:17:31.802Z,633.00
2023-03-06T12:21:31.362Z,633.00
2023-03-06T12:25:31.333Z,602.00
2023-03-06T12:29:31.368Z,593.00
2023-03-06T12:33:31.232Z,571.00
2023-03-06T12:37:31.338Z,504.00
2023-03-06T12:41:31.193Z,498.00
2023-03-06T12:45:31.300Z,523.00
2023-03-06T12:49:32.995Z,600.00
2023-03-06T12:53:31.309Z,642.00
2023-03-06T12:57:31.129Z,658.00
2023-03-06T13:01:31.179Z,664.00
2023-03-06T13:05:31.311Z,765.00
2023-03-06T13:09:31.315Z,794.00
2023-03-06T13:13:31.272Z,864.00
2023-03-06T13:17:31.216Z,774.00
2023-03-06T13:21:31.350Z,651.00
2023-03-06T13:25:31.304Z,511.00
2023-03-06T13:29:31.122Z,521.00
2023-03-06T13:33:31.088Z,500.00
2023-03-06T13:37:31.062Z,514.00
2023-03-06T13:41:31.099Z,512.00
2023-03-06T13:45:30.988Z,504.00
2023-03-06T13:49:30.948Z,501.00
2023-03-06T13:53:30.941Z,507.00
2023-03-06T13:57:30.890Z,505.00
2023-03-06T14:01:30.903Z,544.00
2023-03-06T14:05:30.782Z,509.00
2023-03-06T14:09:30.754Z,518.00
2023-03-06T14:13:38.411Z,533.00
2023-03-06T14:17:31.708Z,531.00
2023-03-06T14:21:30.665Z,527.00
2023-03-06T14:25:30.722Z,501.00
2023-03-06T14:29:30.697Z,505.00
2023-03-06T14:33:30.633Z,523.00
2023-03-06T14:37:30.642Z,519.00
2023-03-06T14:41:30.587Z,503.00
2023-03-06T14:45:30.559Z,511.00
2023-03-06T14:49:30.513Z,528.00
2023-03-06T14:53:30.476Z,555.00
2023-03-06T14:57:30.428Z,579.00
2023-03-06T15:01:30.485Z,561.00
2023-03-06T15:05:30.350Z,564.00
2023-03-06T15:09:30.359Z,552.00
2023-03-06T15:13:30.400Z,500.00
2023-03-06T15:17:30.245Z,599.00
2023-03-06T15:21:30.202Z,596.00
2023-03-06T15:25:30.207Z,603.00
2023-03-06T15:29:30.142Z,613.00
2023-03-06T15:33:30.113Z,627.00
2023-03-06T15:37:30.077Z,585.00
2023-03-06T15:41:30.026Z,498.00
2023-03-06T15:45:30.064Z,585.00
2023-03-06T15:49:29.992Z,611.00
2023-03-06T15:53:29.946Z,610.00
2023-03-06T15:57:29.924Z,585.00
2023-03-06T16:01:29.981Z,580.00
2023-03-06T16:05:29.877Z,619.00
2023-03-06T16:09:29.992Z,624.00
2023-03-06T16:13:30.070Z,608.00
2023-03-06T16:17:30.105Z,599.00
2023-03-06T16:21:30.214Z,603.00
2023-03-06T16:25:30.316Z,625.00
2023-03-06T16:29:30.452Z,609.00
2023-03-06T16:33:30.612Z,579.00
2023-03-06T16:37:30.791Z,570.00
2023-03-06T16:41:31.000Z,629.00
2023-03-06T16:45:31.139Z,645.00
2023-03-06T16:49:31.321Z,609.00
2023-03-06T16:53:31.468Z,597.00
2023-03-06T16:57:32.391Z,596.00
2023-03-06T17:01:32.005Z,610.00
2023-03-06T17:05:31.990Z,592.00
2023-03-06T17:09:32.182Z,562.00
2023-03-06T17:13:32.355Z,582.00
2023-03-06T17:17:32.597Z,605.00
2023-03-06T17:21:32.537Z,621.00
2023-03-06T17:25:32.529Z,581.00
2023-03-06T17:29:32.502Z,574.00
2023-03-06T17:33:32.469Z,649.00
2023-03-06T17:37:32.405Z,657.00
2023-03-06T17:41:32.412Z,736.00
2023-03-06T17:45:32.350Z,648.00
2023-03-06T17:49:32.307Z,612.00
2023-03-06T17:53:32.283Z,607.00
2023-03-06T17:57:32.305Z,613.00
2023-03-06T18:01:32.193Z,569.00
2023-03-06T18:05:32.192Z,513.00
2023-03-06T18:09:32.280Z,518.00
2023-03-06T18:13:32.404Z,502.00
2023-03-06T18:17:32.549Z,502.00
2023-03-06T18:21:32.714Z,503.00
2023-03-06T18:25:32.899Z,511.00
2023-03-06T18:29:32.852Z,503.00
2023-03-06T18:33:32.861Z,528.00
2023-03-06T18:37:32.835Z,561.00
2023-03-06T18:41:32.778Z,548.00
2023-03-06T18:45:32.772Z,549.00
2023-03-06T18:49:32.732Z,585.00
2023-03-06T18:53:32.658Z,569.00
2023-03-06T18:57:32.649Z,534.00
2023-03-06T19:01:32.632Z,520.00
2023-03-06T19:05:32.567Z,504.00
2023-03-06T19:09:32.519Z,538.00
2023-03-06T19:13:32.514Z,508.00
2023-03-06T19:17:32.443Z,499.00
2023-03-06T19:21:32.437Z,500.00
2023-03-06T19:25:32.383Z,511.00
2023-03-06T19:29:32.349Z,765.00
2023-03-06T19:33:32.362Z,638.00
2023-03-06T19:37:32.268Z,608.00
2023-03-06T19:41:32.209Z,583.00
2023-03-06T19:45:32.279Z,572.00
2023-03-06T19:49:32.136Z,655.00
2023-03-06T19:53:32.275Z,602.00
2023-03-06T19:57:32.425Z,555.00
2023-03-06T20:01:32.644Z,528.00
2023-03-06T20:05:32.702Z,592.00
2023-03-06T20:09:32.838Z,541.00
2023-03-06T20:13:32.972Z,588.00
2023-03-06T20:17:33.087Z,524.00
2023-03-06T20:21:33.232Z,507.00
2023-03-06T20:25:33.363Z,551.00
2023-03-06T20:29:33.530Z,551.00
2023-03-06T20:33:33.715Z,523.00
2023-03-06T20:37:33.920Z,502.00
2023-03-06T20:41:34.151Z,514.00
2023-03-06T20:45:34.372Z,603.00
2023-03-06T20:49:34.579Z,584.00
2023-03-06T20:53:34.790Z,574.00
2023-03-06T20:57:34.976Z,551.00
2023-03-06T21:01:34.992Z,564.00
2023-03-06T21:05:34.980Z,574.00
2023-03-06T21:09:34.870Z,578.00
2023-03-06T21:13:34.858Z,597.00
2023-03-06T21:17:34.794Z,587.00
2023-03-06T21:21:34.793Z,568.00
2023-03-06T21:25:34.749Z,561.00
2023-03-06T21:29:34.699Z,555.00
2023-03-06T21:33:34.672Z,515.00
2023-03-06T21:37:34.661Z,500.00
2023-03-06T21:41:34.771Z,512.00
2023-03-06T21:45:34.934Z,519.00
2023-03-06T21:49:34.907Z,573.00
2023-03-06T21:53:34.813Z,594.00
2023-03-06T21:57:34.782Z,600.00
2023-03-06T22:01:34.729Z,615.00
2023-03-06T22:05:34.715Z,642.00
2023-03-06T22:09:34.672Z,856.00
2023-03-06T22:13:34.670Z,989.00
2023-03-06T22:17:34.631Z,976.00
2023-03-06T22:21:34.601Z,925.00
2023-03-06T22:25:34.510Z,918.00
2023-03-06T22:29:34.500Z,935.00
2023-03-06T22:33:34.445Z,966.00
2023-03-06T22:37:34.456Z,1005.00
2023-03-06T22:41:34.394Z,1040.00
2023-03-06T22:45:34.746Z,1001.00
2023-03-06T22:49:34.310Z,983.00
2023-03-06T22:53:34.290Z,998.00
2023-03-06T22:57:34.266Z,991.00
2023-03-06T23:01:34.290Z,961.00
2023-03-06T23:05:34.412Z,955.00
2023-03-06T23:09:34.653Z,957.00
2023-03-06T23:13:34.612Z,979.00
2023-03-06T23:17:34.529Z,1007.00
2023-03-06T23:21:34.529Z,1029.00
2023-03-06T23:25:34.488Z,984.00
2023-03-06T23:29:34.448Z,991.00
2023-03-06T23:33:34.436Z,1155.00
2023-03-06T23:37:34.397Z,1166.00
2023-03-06T23:41:34.349Z,1257.00
2023-03-06T23:45:34.327Z,1335.00
2023-03-06T23:49:34.281Z,1204.00
2023-03-06T23:53:34.235Z,1228.00
2023-03-06T23:57:34.183Z,1229.00
